createdAt,value
2019-05-06T00:00:17.700Z,2.87
2019-05-06T00:02:43.710Z,3.23
2019-05-06T00:05:09.801Z,3.50
2019-05-06T00:07:35.663Z,2.70
2019-05-06T00:10:01.718Z,2.87
2019-05-06T00:12:27.788Z,3.30
2019-05-06T00:14:54.167Z,2.93
2019-05-06T00:17:20.266Z,2.97
2019-05-06T00:19:46.134Z,3.33
2019-05-06T00:22:14.057Z,3.40
2019-05-06T00:24:58.394Z,3.23
2019-05-06T00:27:34.116Z,3.30
2019-05-06T00:29:59.737Z,3.60
2019-05-06T00:32:25.673Z,3.83
2019-05-06T00:34:51.620Z,3.47
2019-05-06T00:37:17.467Z,4.07
2019-05-06T00:39:48.063Z,3.90
2019-05-06T00:42:21.536Z,3.27
2019-05-06T00:44:47.456Z,4.10
2019-05-06T00:47:13.613Z,4.27
2019-05-06T00:49:39.443Z,4.23
2019-05-06T00:52:05.386Z,4.50
2019-05-06T00:54:31.433Z,5.27
2019-05-06T00:56:57.277Z,4.47
2019-05-06T00:59:23.831Z,4.37
2019-05-06T01:01:49.877Z,4.73
2019-05-06T01:04:15.804Z,4.23
2019-05-06T01:06:43.894Z,3.73
2019-05-06T01:09:11.510Z,4.10
2019-05-06T01:11:37.591Z,4.43
2019-05-06T01:14:05.521Z,4.90
2019-05-06T01:16:31.464Z,4.13
2019-05-06T01:18:57.319Z,3.80
2019-05-06T01:21:23.803Z,4.17
2019-05-06T01:23:50.008Z,4.33
2019-05-06T01:26:16.044Z,4.90
2019-05-06T01:28:43.555Z,4.43
2019-05-06T01:31:09.620Z,3.17
2019-05-06T01:33:35.761Z,3.50
2019-05-06T01:36:01.780Z,7.17
2019-05-06T01:38:35.521Z,6.20
2019-05-06T01:41:19.627Z,5.00
2019-05-06T01:43:45.781Z,5.33
2019-05-06T01:46:13.898Z,4.60
2019-05-06T01:48:48.897Z,4.83
2019-05-06T01:51:17.014Z,4.47
2019-05-06T01:53:44.830Z,4.57
2019-05-06T01:56:10.817Z,3.80
2019-05-06T01:58:36.756Z,4.40
2019-05-06T02:01:04.028Z,4.23
2019-05-06T02:03:29.945Z,5.63
2019-05-06T02:05:55.806Z,4.13
2019-05-06T02:08:21.736Z,3.80
2019-05-06T02:10:47.710Z,3.90
2019-05-06T02:13:14.228Z,4.17
2019-05-06T02:15:40.191Z,3.77
2019-05-06T02:18:06.017Z,4.70
2019-05-06T02:20:33.969Z,4.20
2019-05-06T02:23:04.057Z,5.67
2019-05-06T02:25:31.582Z,5.23
2019-05-06T02:27:57.427Z,5.67
2019-05-06T02:30:36.472Z,5.53
2019-05-06T02:33:04.479Z,5.63
2019-05-06T02:35:38.237Z,5.30
2019-05-06T02:38:06.083Z,5.20
2019-05-06T02:40:33.179Z,4.77
2019-05-06T02:42:59.295Z,5.20
2019-05-06T02:45:25.235Z,4.43
2019-05-06T02:47:59.427Z,4.03
2019-05-06T02:50:33.968Z,4.70
2019-05-06T02:53:02.518Z,4.50
2019-05-06T02:55:27.716Z,4.60
2019-05-06T02:57:53.989Z,4.80
2019-05-06T03:00:20.205Z,4.33
2019-05-06T03:02:48.092Z,4.20
2019-05-06T03:05:14.119Z,3.70
2019-05-06T03:07:43.214Z,4.13
2019-05-06T03:10:12.895Z,3.80
2019-05-06T03:12:38.983Z,3.70
2019-05-06T03:15:05.036Z,4.20
2019-05-06T03:17:32.837Z,4.00
2019-05-06T03:20:04.008Z,4.50
2019-05-06T03:22:39.223Z,3.73
2019-05-06T03:25:13.572Z,4.40
2019-05-06T03:27:39.618Z,4.27
2019-05-06T03:30:05.946Z,4.30
2019-05-06T03:32:37.628Z,4.60
2019-05-06T03:35:19.333Z,4.90
2019-05-06T03:37:27.575Z,4.47
2019-05-06T03:39:53.523Z,4.90
2019-05-06T03:42:22.775Z,4.93
2019-05-06T03:44:49.233Z,4.50
2019-05-06T03:47:17.103Z,5.70
2019-05-06T03:49:44.859Z,4.30
2019-05-06T03:52:13.500Z,5.20
2019-05-06T03:54:38.953Z,5.47
2019-05-06T03:57:04.902Z,4.10
2019-05-06T03:59:33.547Z,4.77
2019-05-06T04:01:59.790Z,4.77
2019-05-06T04:04:25.751Z,4.53
2019-05-06T04:06:53.748Z,4.57
2019-05-06T04:09:19.627Z,5.67
2019-05-06T04:11:45.881Z,5.63
2019-05-06T04:14:14.179Z,4.50
2019-05-06T04:16:44.007Z,6.00
2019-05-06T04:19:13.059Z,4.93
2019-05-06T04:21:55.878Z,5.57
2019-05-06T04:24:29.361Z,5.53
2019-05-06T04:27:16.916Z,5.13
2019-05-06T04:29:42.961Z,4.77
2019-05-06T04:32:08.953Z,5.83
2019-05-06T04:34:35.110Z,4.73
2019-05-06T04:37:03.450Z,5.33
2019-05-06T04:39:29.076Z,5.00
2019-05-06T04:41:55.062Z,5.00
2019-05-06T04:44:23.697Z,4.10
2019-05-06T04:46:48.947Z,3.90
2019-05-06T04:49:15.356Z,3.83
2019-05-06T04:51:43.052Z,4.60
2019-05-06T04:54:09.329Z,3.70
2019-05-06T04:56:35.172Z,3.90
2019-05-06T04:59:05.826Z,3.63
2019-05-06T05:01:29.157Z,4.03
2019-05-06T05:03:55.219Z,3.97
2019-05-06T05:06:23.130Z,3.83
2019-05-06T05:08:49.041Z,4.97
2019-05-06T05:11:25.684Z,4.00
2019-05-06T05:14:03.036Z,4.03
2019-05-06T05:16:33.808Z,4.93
2019-05-06T05:19:04.329Z,4.60
2019-05-06T05:21:32.272Z,5.17
2019-05-06T05:23:58.218Z,5.13
2019-05-06T05:26:24.158Z,4.10
2019-05-06T05:28:50.102Z,5.00
2019-05-06T05:31:16.049Z,5.53
2019-05-06T05:33:42.379Z,4.57
2019-05-06T05:36:08.461Z,4.50
2019-05-06T05:38:34.296Z,3.93
2019-05-06T05:41:00.257Z,4.10
2019-05-06T05:43:28.113Z,4.50
2019-05-06T05:45:54.264Z,4.43
2019-05-06T05:48:25.098Z,5.27
2019-05-06T05:50:52.505Z,4.40
2019-05-06T05:53:18.566Z,4.03
2019-05-06T05:55:44.800Z,5.07
2019-05-06T05:58:12.792Z,3.83
2019-05-06T06:00:38.707Z,4.60
2019-05-06T06:03:07.086Z,4.70
2019-05-06T06:05:33.158Z,4.47
2019-05-06T06:07:59.174Z,6.00
2019-05-06T06:10:35.860Z,4.80
2019-05-06T06:13:02.196Z,5.33
2019-05-06T06:15:35.725Z,5.23
2019-05-06T06:18:19.860Z,5.90
2019-05-06T06:20:56.422Z,6.00
2019-05-06T06:23:29.897Z,5.53
2019-05-06T06:25:55.854Z,4.97
2019-05-06T06:28:22.768Z,5.40
2019-05-06T06:31:05.781Z,5.70
2019-05-06T06:33:32.971Z,5.30
2019-05-06T06:36:02.729Z,4.87
2019-05-06T06:38:47.251Z,4.67
2019-05-06T06:41:13.234Z,4.83
2019-05-06T06:43:39.358Z,5.93
2019-05-06T06:46:09.008Z,5.90
2019-05-06T06:48:33.048Z,4.90
2019-05-06T06:50:58.978Z,7.70
2019-05-06T06:53:24.917Z,6.90
2019-05-06T06:55:52.775Z,6.17
2019-05-06T06:58:22.745Z,7.07
2019-05-06T07:00:53.460Z,6.60
2019-05-06T07:03:22.321Z,6.37
2019-05-06T07:05:53.533Z,6.40
2019-05-06T07:08:32.110Z,5.27
2019-05-06T07:10:47.461Z,6.03
2019-05-06T07:13:14.402Z,6.00
2019-05-06T07:15:42.655Z,6.10
2019-05-06T07:18:08.507Z,5.90
2019-05-06T07:20:36.328Z,6.03
2019-05-06T07:23:04.172Z,5.90
2019-05-06T07:25:30.113Z,5.40
2019-05-06T07:27:56.086Z,6.57
2019-05-06T07:30:24.033Z,6.27
2019-05-06T07:32:49.985Z,6.40
2019-05-06T07:35:15.846Z,4.80
2019-05-06T07:37:42.298Z,6.77
2019-05-06T07:40:08.953Z,6.00
2019-05-06T07:42:39.439Z,6.30
2019-05-06T07:45:21.901Z,6.20
2019-05-06T07:47:49.638Z,5.67
2019-05-06T07:50:15.564Z,6.03
2019-05-06T07:52:43.420Z,5.40
2019-05-06T07:55:11.896Z,6.87
2019-05-06T07:57:37.381Z,4.90
2019-05-06T08:00:05.304Z,5.63
2019-05-06T08:02:32.060Z,5.70
2019-05-06T08:04:57.997Z,7.80
2019-05-06T08:07:23.823Z,6.40
2019-05-06T08:09:52.774Z,6.70
2019-05-06T08:12:18.603Z,6.27
2019-05-06T08:14:44.471Z,6.63
2019-05-06T08:17:13.299Z,6.53
2019-05-06T08:19:39.339Z,6.53
2019-05-06T08:22:12.593Z,6.83
2019-05-06T08:24:38.649Z,6.27
2019-05-06T08:27:04.693Z,6.33
2019-05-06T08:29:32.913Z,7.97
2019-05-06T08:31:58.500Z,5.20
2019-05-06T08:34:24.547Z,5.50
2019-05-06T08:36:53.343Z,7.13
2019-05-06T08:39:21.926Z,5.23
2019-05-06T08:41:47.496Z,4.97
2019-05-06T08:44:13.437Z,5.50
2019-05-06T08:46:39.296Z,5.47
2019-05-06T08:49:05.309Z,5.20
2019-05-06T08:51:48.003Z,5.70
2019-05-06T08:54:24.713Z,5.67
2019-05-06T08:56:52.314Z,5.53
2019-05-06T08:59:18.401Z,5.47
2019-05-06T09:01:46.369Z,5.30
2019-05-06T09:04:15.949Z,6.33
2019-05-06T09:06:42.921Z,5.90
2019-05-06T09:09:08.399Z,6.80
2019-05-06T09:11:34.654Z,6.20
2019-05-06T09:14:03.197Z,6.10
2019-05-06T09:16:28.533Z,5.67
2019-05-06T09:18:54.491Z,5.30
2019-05-06T09:21:22.428Z,6.10
2019-05-06T09:23:48.258Z,5.57
2019-05-06T09:26:16.115Z,5.57
2019-05-06T09:28:43.962Z,6.10
2019-05-06T09:31:17.938Z,5.83
2019-05-06T09:33:48.654Z,4.90
2019-05-06T09:36:14.534Z,5.63
2019-05-06T09:38:42.448Z,4.87
2019-05-06T09:41:08.318Z,5.90
2019-05-06T09:43:34.365Z,5.20
2019-05-06T09:46:02.344Z,5.93
2019-05-06T09:48:30.066Z,4.90
2019-05-06T09:50:56.009Z,4.40
2019-05-06T09:53:23.943Z,4.20
2019-05-06T09:56:03.849Z,3.30
2019-05-06T09:58:32.292Z,3.47
2019-05-06T10:00:59.541Z,3.80
2019-05-06T10:03:25.509Z,3.93
2019-05-06T10:05:53.118Z,2.43
2019-05-06T10:08:19.266Z,4.10
2019-05-06T10:10:56.195Z,4.20
2019-05-06T10:13:13.152Z,3.70
2019-05-06T10:15:38.992Z,4.20
2019-05-06T10:18:08.417Z,4.13
2019-05-06T10:20:42.746Z,4.67
2019-05-06T10:23:09.183Z,4.47
2019-05-06T10:25:35.053Z,3.87
2019-05-06T10:28:03.133Z,3.57
2019-05-06T10:30:29.177Z,3.83
2019-05-06T10:32:56.911Z,3.67
2019-05-06T10:35:25.759Z,4.03
2019-05-06T10:38:02.988Z,3.80
2019-05-06T10:40:33.081Z,4.43
2019-05-06T10:43:11.543Z,4.60
2019-05-06T10:45:37.421Z,3.33
2019-05-06T10:48:03.263Z,3.90
2019-05-06T10:50:31.222Z,4.50
2019-05-06T10:53:17.221Z,5.50
2019-05-06T10:55:47.772Z,3.73
2019-05-06T10:58:13.610Z,3.40
2019-05-06T11:00:39.557Z,3.60
2019-05-06T11:03:14.965Z,4.17
2019-05-06T11:05:43.207Z,3.83
2019-05-06T11:08:09.145Z,3.87
2019-05-06T11:10:41.242Z,4.10
2019-05-06T11:13:03.518Z,3.90
2019-05-06T11:15:29.510Z,4.03
2019-05-06T11:17:55.455Z,3.20
2019-05-06T11:20:23.941Z,4.03
2019-05-06T11:22:49.102Z,4.13
2019-05-06T11:25:15.036Z,3.50
2019-05-06T11:27:42.512Z,3.23
2019-05-06T11:30:12.708Z,4.20
2019-05-06T11:32:44.400Z,4.13
2019-05-06T11:35:18.284Z,4.20
2019-05-06T11:37:50.492Z,3.87
2019-05-06T11:40:16.965Z,3.80
2019-05-06T11:42:43.641Z,4.17
2019-05-06T11:45:12.102Z,3.60
2019-05-06T11:47:37.656Z,3.80
2019-05-06T11:50:06.111Z,4.03
2019-05-06T11:52:34.443Z,4.10
2019-05-06T11:55:02.059Z,3.93
2019-05-06T11:57:27.842Z,4.33
2019-05-06T11:59:53.896Z,4.23
2019-05-06T12:02:21.655Z,4.03
2019-05-06T12:04:47.493Z,4.53
2019-05-06T12:07:15.593Z,4.40
2019-05-06T12:09:41.178Z,5.17
2019-05-06T12:12:07.053Z,4.60
2019-05-06T12:14:33.187Z,3.50
2019-05-06T12:16:59.142Z,4.37
2019-05-06T12:19:25.102Z,4.17
2019-05-06T12:21:51.064Z,4.20
2019-05-06T12:24:17.042Z,4.23
2019-05-06T12:26:43.100Z,4.47
2019-05-06T12:29:09.069Z,4.80
2019-05-06T12:31:35.007Z,4.97
2019-05-06T12:34:02.704Z,4.00
2019-05-06T12:36:28.800Z,6.40
2019-05-06T12:39:17.111Z,4.20
2019-05-06T12:41:44.089Z,4.20
2019-05-06T12:44:12.916Z,3.93
2019-05-06T12:46:39.595Z,4.50
2019-05-06T12:49:05.528Z,4.20
2019-05-06T12:51:32.250Z,4.67
2019-05-06T12:53:58.217Z,5.23
2019-05-06T12:56:24.160Z,4.87
2019-05-06T12:58:52.393Z,5.10
2019-05-06T13:01:17.998Z,5.03
2019-05-06T13:03:43.950Z,4.40
2019-05-06T13:06:12.744Z,3.57
2019-05-06T13:08:53.835Z,5.10
2019-05-06T13:11:05.766Z,4.80
2019-05-06T13:13:33.215Z,5.00
2019-05-06T13:15:59.167Z,3.90
2019-05-06T13:18:25.026Z,5.40
2019-05-06T13:20:52.233Z,4.80
2019-05-06T13:23:35.222Z,5.10
2019-05-06T13:26:02.013Z,4.67
2019-05-06T13:28:30.551Z,5.97
2019-05-06T13:31:11.852Z,6.10
2019-05-06T13:33:27.153Z,5.27
2019-05-06T13:35:53.099Z,5.30
2019-05-06T13:38:19.055Z,5.77
2019-05-06T13:40:53.810Z,6.30
2019-05-06T13:43:20.373Z,4.60
2019-05-06T13:45:48.670Z,4.80
2019-05-06T13:48:23.021Z,4.13
2019-05-06T13:50:52.574Z,4.77
2019-05-06T13:53:18.618Z,4.17
2019-05-06T13:55:44.496Z,5.40
2019-05-06T13:58:12.467Z,4.47
2019-05-06T14:00:38.134Z,4.87
2019-05-06T14:03:04.111Z,4.50
2019-05-06T14:05:29.986Z,4.90
2019-05-06T14:07:55.931Z,5.00
2019-05-06T14:10:22.303Z,5.13
2019-05-06T14:12:48.256Z,5.33
2019-05-06T14:15:14.635Z,5.00
2019-05-06T14:17:42.403Z,5.20
2019-05-06T14:20:08.731Z,6.20
2019-05-06T14:22:35.039Z,5.37
2019-05-06T14:25:22.813Z,5.10
2019-05-06T14:27:52.589Z,5.63
2019-05-06T14:30:22.706Z,4.87
2019-05-06T14:32:48.277Z,6.00
2019-05-06T14:35:14.254Z,4.80
2019-05-06T14:37:42.153Z,4.40
2019-05-06T14:40:11.869Z,7.20
2019-05-06T14:42:39.554Z,4.80
2019-05-06T14:45:05.640Z,5.17
2019-05-06T14:47:33.401Z,5.97
2019-05-06T14:49:59.778Z,7.53
2019-05-06T14:52:25.635Z,10.17
2019-05-06T14:54:53.631Z,11.23
2019-05-06T14:57:19.824Z,9.50
2019-05-06T14:59:45.653Z,3.83
2019-05-06T15:02:13.252Z,4.40
2019-05-06T15:04:39.268Z,4.60
2019-05-06T15:07:05.294Z,4.77
2019-05-06T15:09:32.947Z,5.33
2019-05-06T15:11:59.007Z,5.40
2019-05-06T15:14:24.855Z,4.50
2019-05-06T15:16:52.791Z,3.93
2019-05-06T15:19:18.588Z,4.33
2019-05-06T15:21:44.797Z,3.97
2019-05-06T15:24:13.492Z,4.30
2019-05-06T15:26:38.575Z,4.53
2019-05-06T15:29:04.593Z,5.67
2019-05-06T15:31:49.060Z,3.40
2019-05-06T15:34:16.894Z,4.87
2019-05-06T15:36:53.521Z,4.33
2019-05-06T15:39:19.431Z,4.87
2019-05-06T15:41:45.314Z,4.10
2019-05-06T15:44:12.583Z,3.87
2019-05-06T15:46:38.615Z,5.57
2019-05-06T15:49:04.494Z,4.43
2019-05-06T15:51:33.206Z,4.20
2019-05-06T15:53:59.044Z,3.60
2019-05-06T15:56:24.874Z,5.20
2019-05-06T15:58:50.721Z,4.40
2019-05-06T16:01:16.543Z,4.63
2019-05-06T16:03:43.341Z,4.00
2019-05-06T16:06:09.236Z,4.47
2019-05-06T16:08:35.166Z,5.00
2019-05-06T16:11:02.921Z,3.70
2019-05-06T16:13:28.785Z,4.63
2019-05-06T16:15:54.635Z,4.77
2019-05-06T16:18:23.216Z,3.50
2019-05-06T16:20:48.760Z,4.23
2019-05-06T16:23:32.759Z,3.13
2019-05-06T16:25:59.049Z,3.80
2019-05-06T16:28:24.899Z,3.53
2019-05-06T16:30:53.195Z,3.20
2019-05-06T16:33:19.012Z,4.10
2019-05-06T16:35:45.093Z,3.07
2019-05-06T16:38:13.005Z,4.07
2019-05-06T16:40:38.810Z,3.53
2019-05-06T16:43:04.764Z,3.40
2019-05-06T16:45:30.596Z,4.00
2019-05-06T16:47:56.458Z,3.30
2019-05-06T16:50:22.990Z,2.97
2019-05-06T16:52:48.858Z,4.40
2019-05-06T16:55:17.727Z,3.90
2019-05-06T16:57:45.494Z,3.70
2019-05-06T17:00:13.578Z,3.87
2019-05-06T17:02:56.871Z,3.33
2019-05-06T17:05:37.844Z,4.17
2019-05-06T17:08:03.732Z,3.33
2019-05-06T17:10:29.705Z,3.70
2019-05-06T17:12:55.563Z,4.00
2019-05-06T17:15:23.016Z,3.77
2019-05-06T17:17:48.974Z,3.90
2019-05-06T17:20:15.436Z,3.67
2019-05-06T17:22:42.343Z,3.33
2019-05-06T17:25:08.502Z,4.03
2019-05-06T17:27:35.862Z,3.00
2019-05-06T17:30:22.465Z,2.63
2019-05-06T17:32:50.084Z,2.80
2019-05-06T17:35:16.150Z,3.20
2019-05-06T17:37:49.996Z,2.70
2019-05-06T17:40:17.957Z,2.93
2019-05-06T17:42:43.897Z,3.40
2019-05-06T17:45:28.032Z,3.00
2019-05-06T17:47:55.824Z,3.90
2019-05-06T17:50:22.546Z,3.10
2019-05-06T17:52:48.553Z,3.47
2019-05-06T17:55:14.439Z,3.43
2019-05-06T17:57:42.153Z,3.47
2019-05-06T18:00:08.230Z,2.90
2019-05-06T18:02:34.080Z,2.40
2019-05-06T18:04:59.917Z,3.07
2019-05-06T18:07:25.775Z,3.30
2019-05-06T18:09:52.294Z,3.03
2019-05-06T18:12:18.340Z,2.90
2019-05-06T18:14:44.285Z,3.10
2019-05-06T18:17:12.328Z,3.40
2019-05-06T18:19:37.894Z,3.50
2019-05-06T18:22:03.744Z,2.93
2019-05-06T18:24:29.613Z,3.70
2019-05-06T18:26:55.442Z,3.30
2019-05-06T18:29:22.172Z,3.23
2019-05-06T18:31:48.156Z,2.70
2019-05-06T18:34:14.122Z,2.73
2019-05-06T18:36:40.000Z,3.30
2019-05-06T18:39:05.854Z,2.53
2019-05-06T18:41:32.908Z,3.33
2019-05-06T18:43:58.951Z,3.27
2019-05-06T18:46:24.947Z,2.90
2019-05-06T18:48:52.419Z,3.30
2019-05-06T18:51:18.610Z,3.40
2019-05-06T18:53:44.450Z,2.90
2019-05-06T18:56:12.544Z,3.13
2019-05-06T18:58:38.167Z,2.90
2019-05-06T19:01:04.151Z,2.80
2019-05-06T19:03:32.414Z,2.87
2019-05-06T19:05:58.322Z,3.83
2019-05-06T19:08:42.523Z,3.73
2019-05-06T19:11:11.861Z,3.70
2019-05-06T19:13:38.073Z,2.87
2019-05-06T19:16:03.908Z,3.80
2019-05-06T19:18:29.832Z,4.90
2019-05-06T19:20:55.653Z,6.27
2019-05-06T19:23:22.499Z,5.30
2019-05-06T19:25:48.406Z,4.97
2019-05-06T19:28:14.435Z,5.23
2019-05-06T19:30:41.004Z,4.87
2019-05-06T19:33:07.234Z,5.53
2019-05-06T19:35:36.810Z,3.80
2019-05-06T19:38:02.991Z,4.57
2019-05-06T19:40:28.613Z,3.70
2019-05-06T19:42:54.465Z,4.83
2019-05-06T19:45:22.319Z,4.93
2019-05-06T19:47:48.079Z,4.17
2019-05-06T19:50:14.123Z,4.67
2019-05-06T19:52:42.043Z,4.90
2019-05-06T19:55:07.838Z,5.67
2019-05-06T19:57:33.816Z,4.53
2019-05-06T19:59:59.656Z,4.77
2019-05-06T20:02:25.958Z,4.70
2019-05-06T20:04:56.527Z,5.37
2019-05-06T20:07:39.172Z,7.50
2019-05-06T20:10:07.109Z,5.23
2019-05-06T20:12:34.902Z,5.90
2019-05-06T20:15:19.276Z,6.93
2019-05-06T20:17:45.129Z,5.83
2019-05-06T20:20:12.453Z,6.80
2019-05-06T20:22:38.366Z,6.23
2019-05-06T20:25:05.111Z,7.27
2019-05-06T20:27:32.421Z,7.17
2019-05-06T20:29:58.358Z,6.60
2019-05-06T20:32:24.260Z,6.20
2019-05-06T20:34:50.267Z,10.37
2019-05-06T20:37:16.070Z,10.63
2019-05-06T20:39:43.344Z,8.80
2019-05-06T20:42:09.353Z,6.90
2019-05-06T20:44:35.302Z,6.33
2019-05-06T20:47:03.096Z,4.93
2019-05-06T20:49:28.994Z,3.93
2019-05-06T20:51:54.842Z,4.10
2019-05-06T20:54:20.688Z,4.80
2019-05-06T20:56:46.529Z,4.37
2019-05-06T20:59:12.370Z,5.40
2019-05-06T21:01:38.219Z,3.83
2019-05-06T21:04:04.059Z,4.70
2019-05-06T21:06:32.029Z,3.90
2019-05-06T21:08:57.682Z,4.13
2019-05-06T21:11:28.949Z,4.17
2019-05-06T21:13:51.286Z,3.90
2019-05-06T21:16:17.145Z,4.37
2019-05-06T21:18:42.991Z,4.00
2019-05-06T21:21:08.849Z,5.90
2019-05-06T21:23:34.694Z,7.30
2019-05-06T21:26:00.575Z,9.07
2019-05-06T21:28:26.993Z,8.60
2019-05-06T21:30:52.867Z,7.40
2019-05-06T21:33:18.695Z,5.50
2019-05-06T21:35:44.529Z,4.50
2019-05-06T21:38:12.153Z,5.20
2019-05-06T21:40:38.118Z,4.83
2019-05-06T21:43:03.945Z,5.00
2019-05-06T21:45:29.820Z,6.27
2019-05-06T21:47:55.683Z,6.10
2019-05-06T21:50:22.782Z,8.20
2019-05-06T21:52:48.771Z,6.00
2019-05-06T21:55:16.530Z,4.03
2019-05-06T21:57:42.527Z,5.83
2019-05-06T22:00:12.650Z,5.37
2019-05-06T22:02:38.462Z,5.20
2019-05-06T22:05:06.918Z,5.00
2019-05-06T22:07:35.608Z,4.60
2019-05-06T22:10:03.385Z,5.00
2019-05-06T22:12:29.224Z,4.60
2019-05-06T22:14:55.064Z,4.40
2019-05-06T22:17:22.589Z,4.70
2019-05-06T22:19:48.481Z,5.23
2019-05-06T22:22:16.197Z,4.60
2019-05-06T22:24:52.329Z,4.63
2019-05-06T22:27:17.104Z,4.47
2019-05-06T22:29:42.941Z,4.40
2019-05-06T22:32:08.877Z,5.40
2019-05-06T22:34:34.716Z,5.53
2019-05-06T22:37:03.163Z,4.83
2019-05-06T22:39:28.337Z,4.83
2019-05-06T22:41:54.187Z,5.00
2019-05-06T22:44:20.034Z,4.07
2019-05-06T22:46:45.887Z,4.53
2019-05-06T22:49:13.312Z,4.30
2019-05-06T22:51:39.291Z,4.00
2019-05-06T22:54:05.104Z,4.57
2019-05-06T22:56:32.534Z,4.10
2019-05-06T22:58:58.497Z,4.27
2019-05-06T23:01:26.240Z,4.23
2019-05-06T23:03:52.592Z,4.17
2019-05-06T23:06:18.442Z,4.60
2019-05-06T23:08:44.368Z,4.50
2019-05-06T23:11:10.272Z,4.23
2019-05-06T23:13:36.130Z,4.87
2019-05-06T23:16:02.134Z,5.50
2019-05-06T23:18:28.022Z,5.53
2019-05-06T23:20:53.861Z,5.80
2019-05-06T23:23:22.119Z,6.27
2019-05-06T23:25:49.349Z,6.57
2019-05-06T23:28:15.192Z,6.40
2019-05-06T23:30:42.866Z,6.17
2019-05-06T23:33:08.786Z,5.80
2019-05-06T23:35:34.630Z,5.67
2019-05-06T23:38:37.716Z,6.90
2019-05-06T23:41:42.326Z,6.80
2019-05-06T23:44:46.306Z,6.00
2019-05-06T23:47:49.370Z,5.70
2019-05-06T23:50:52.494Z,5.53
2019-05-06T23:53:55.424Z,4.93
2019-05-06T23:56:43.924Z,4.37
2019-05-06T23:59:12.569Z,5.00
